»·PEaware :: N799BS KCRQ-KMYF

N799BS :: KCRQ-KMYF

FLIGHT INFORMATION

Flight Status: Arrived
Operator: Privately registered:
United States
More flights under this callsign
Pilot: Steve R. (11401)
Aircraft: Unknown
(BA36)
More flights by this aircraft type
Origin: KCRQ McClellan-Palomar
United States
Destination: KMYF Montgomery
United States
More flights between these airports :: More routes between these airports
Route: +KCRQ MZB KMYF
File this flight plan on PilotEdge
Remarks:
Altitude:
(Current/Filed)
4,000ft
Speed:
(Current/Filed)
150kts
Departed: 30-Dec-16 03:37 PM
Arrived: 30-Dec-16 04:12 PM
Distance/Time
Traveled:
20nm/0:35
Distance/Time
To Go:
Arrived

Flight Plot

Page will automatically refresh every two minutes.


Map Options




Map Legend


Flown Route
Filed Route
Departure Airport
Arrival Airport
Navaid (VOR, NDB)
Fix

Horizontal Profiles

Position Reports

Time Latitude Longitude Heading Altitude Ground
Speed
30-Dec-16 15:14 33.127547 -117.274783 258 335ft 0kts
30-Dec-16 15:15 33.127547 -117.274783 258 335ft 0kts
30-Dec-16 15:16 33.127535 -117.274803 257 335ft 0kts
30-Dec-16 15:17 33.127535 -117.274803 257 335ft 0kts
30-Dec-16 15:18 33.127535 -117.274803 257 335ft 0kts
30-Dec-16 15:19 33.127535 -117.274803 257 335ft 0kts
30-Dec-16 15:20 33.127535 -117.274803 257 335ft 0kts
30-Dec-16 15:21 33.127535 -117.274803 257 335ft 0kts
30-Dec-16 15:22 33.127535 -117.274803 257 335ft 0kts
30-Dec-16 15:23 33.127535 -117.274803 257 335ft 0kts
30-Dec-16 15:24 33.127535 -117.274803 257 335ft 0kts
30-Dec-16 15:25 33.127535 -117.274803 257 335ft 0kts
30-Dec-16 15:26 33.127535 -117.274803 257 335ft 0kts
30-Dec-16 15:27 33.127535 -117.274803 257 335ft 0kts
30-Dec-16 15:28 33.127535 -117.274803 257 335ft 0kts
30-Dec-16 15:29 33.127535 -117.274803 257 335ft 0kts
30-Dec-16 15:30 33.127535 -117.274803 257 335ft 0kts
30-Dec-16 15:31 33.127535 -117.274804 257 335ft 0kts
30-Dec-16 15:32 33.128491 -117.273394 79 335ft 10kts
30-Dec-16 15:33 33.128662 -117.272862 42 335ft 0kts
30-Dec-16 15:34 33.128662 -117.272862 42 335ft 0kts
30-Dec-16 15:35 33.128662 -117.272862 42 335ft 0kts
30-Dec-16 15:36 33.128662 -117.272862 42 335ft 0kts
30-Dec-16 15:37 33.128925 -117.276324 263 335ft 70kts
30-Dec-16 15:38 33.124609 -117.305582 256 1412ft 102kts
30-Dec-16 15:39 33.119972 -117.338296 262 2720ft 102kts
30-Dec-16 15:40 33.117050 -117.372389 263 3850ft 112kts
30-Dec-16 15:41 33.114132 -117.418957 267 4002ft 159kts
30-Dec-16 15:42 33.085681 -117.432525 125 4003ft 160kts
30-Dec-16 15:43 33.051717 -117.399119 150 4000ft 161kts
30-Dec-16 15:44 33.012767 -117.373616 151 3999ft 161kts
30-Dec-16 15:45 32.974069 -117.348704 151 3999ft 161kts
30-Dec-16 15:46 32.936723 -117.324691 151 3999ft 161kts
30-Dec-16 15:47 32.902406 -117.302647 151 3999ft 161kts
30-Dec-16 15:48 32.863872 -117.277916 151 3999ft 161kts
30-Dec-16 15:49 32.824563 -117.252714 151 3999ft 161kts
30-Dec-16 15:50 32.785509 -117.226790 134 3995ft 161kts
30-Dec-16 15:51 32.770981 -117.179865 91 4000ft 161kts
30-Dec-16 15:52 32.769676 -117.126548 91 3999ft 161kts
30-Dec-16 15:53 32.768604 -117.081484 91 3999ft 161kts
30-Dec-16 15:54 32.767647 -117.040756 91 3947ft 164kts
30-Dec-16 15:55 32.766421 -116.989046 91 3926ft 162kts
30-Dec-16 15:56 32.765190 -116.935962 91 3926ft 161kts
30-Dec-16 15:57 32.763958 -116.882770 91 3926ft 161kts
30-Dec-16 15:58 32.762736 -116.829623 91 3926ft 161kts
30-Dec-16 15:59 32.761519 -116.776227 91 3953ft 159kts
30-Dec-16 16:00 32.735166 -116.767481 240 4550ft 132kts
30-Dec-16 16:01 32.720330 -116.806981 270 4936ft 146kts
30-Dec-16 16:02 32.721440 -116.857184 271 4921ft 159kts
30-Dec-16 16:03 32.723355 -116.903289 284 4339ft 164kts
30-Dec-16 16:04 32.734912 -116.940768 292 3938ft 160kts
30-Dec-16 16:05 32.747812 -116.975384 296 3685ft 157kts
30-Dec-16 16:06 32.761421 -117.007830 296 3006ft 158kts
30-Dec-16 16:07 32.775037 -117.038824 300 2457ft 140kts
30-Dec-16 16:08 32.787512 -117.064526 300 1748ft 95kts
30-Dec-16 16:09 32.796808 -117.090629 293 1093ft 74kts
30-Dec-16 16:10 32.803955 -117.111441 295 860ft 80kts
30-Dec-16 16:11 32.814367 -117.135166 292 437ft 61kts
30-Dec-16 16:12 32.817869 -117.144478 265 431ft 4kts

Navigation Log

Ident Type
Flight plan parsing failed, navigation log unavailable